sensor_id;sensor_type;location;lat;lon;timestamp;pressure;altitude;pressure_sealevel;temperature;humidity
81511;BME280;70931;48.796;8.440;2024-03-07T00:00:11;97705.47;;;7.50;84.38
81511;BME280;70931;48.796;8.440;2024-03-07T00:02:36;97706.47;;;7.49;84.42
81511;BME280;70931;48.796;8.440;2024-03-07T00:05:02;97706.72;;;7.45;84.67
81511;BME280;70931;48.796;8.440;2024-03-07T00:07:27;97711.31;;;7.43;84.56
81511;BME280;70931;48.796;8.440;2024-03-07T00:09:52;97703.81;;;7.49;84.63
81511;BME280;70931;48.796;8.440;2024-03-07T00:12:17;97712.72;;;7.47;84.55
81511;BME280;70931;48.796;8.440;2024-03-07T00:14:43;97712.31;;;7.42;84.71
81511;BME280;70931;48.796;8.440;2024-03-07T00:17:08;97701.97;;;7.39;84.56
81511;BME280;70931;48.796;8.440;2024-03-07T00:19:33;97705.59;;;7.38;84.50
81511;BME280;70931;48.796;8.440;2024-03-07T00:21:59;97703.63;;;7.40;84.49
81511;BME280;70931;48.796;8.440;2024-03-07T00:24:24;97702.41;;;7.44;84.33
81511;BME280;70931;48.796;8.440;2024-03-07T00:26:50;97703.50;;;7.42;84.31
81511;BME280;70931;48.796;8.440;2024-03-07T00:29:15;97703.63;;;7.40;84.35
81511;BME280;70931;48.796;8.440;2024-03-07T00:31:41;97698.78;;;7.45;84.37
81511;BME280;70931;48.796;8.440;2024-03-07T00:34:06;97674.19;;;7.24;84.43
81511;BME280;70931;48.796;8.440;2024-03-07T00:36:31;97704.34;;;7.42;84.53
81511;BME280;70931;48.796;8.440;2024-03-07T00:38:56;97706.28;;;7.40;84.35
81511;BME280;70931;48.796;8.440;2024-03-07T00:41:21;97703.94;;;7.37;84.18
81511;BME280;70931;48.796;8.440;2024-03-07T00:43:47;97694.16;;;7.28;84.47
81511;BME280;70931;48.796;8.440;2024-03-07T00:46:12;97688.69;;;7.20;84.64
81511;BME280;70931;48.796;8.440;2024-03-07T00:48:37;97697.94;;;7.26;84.71
81511;BME280;70931;48.796;8.440;2024-03-07T00:51:04;97702.69;;;7.22;84.87
81511;BME280;70931;48.796;8.440;2024-03-07T00:53:29;97701.13;;;7.20;84.68
81511;BME280;70931;48.796;8.440;2024-03-07T00:55:55;97699.03;;;7.14;84.61
81511;BME280;70931;48.796;8.440;2024-03-07T00:58:20;97693.84;;;7.12;84.71
81511;BME280;70931;48.796;8.440;2024-03-07T01:00:45;97693.16;;;7.10;84.46
81511;BME280;70931;48.796;8.440;2024-03-07T01:03:10;97693.44;;;7.07;84.42
81511;BME280;70931;48.796;8.440;2024-03-07T01:05:36;97694.41;;;7.06;84.52
81511;BME280;70931;48.796;8.440;2024-03-07T01:08:01;97691.19;;;7.12;84.33
81511;BME280;70931;48.796;8.440;2024-03-07T01:10:26;97692.47;;;7.08;84.42
81511;BME280;70931;48.796;8.440;2024-03-07T01:12:52;97685.63;;;7.06;84.68
81511;BME280;70931;48.796;8.440;2024-03-07T01:15:17;97683.09;;;7.04;84.54
81511;BME280;70931;48.796;8.440;2024-03-07T01:17:42;97687.28;;;7.07;84.42
81511;BME280;70931;48.796;8.440;2024-03-07T01:20:07;97690.63;;;6.99;84.48
81511;BME280;70931;48.796;8.440;2024-03-07T01:22:33;97687.56;;;6.94;85.00
81511;BME280;70931;48.796;8.440;2024-03-07T01:24:58;97671.22;;;6.89;84.50
81511;BME280;70931;48.796;8.440;2024-03-07T01:27:23;97681.25;;;6.76;84.88
81511;BME280;70931;48.796;8.440;2024-03-07T01:29:48;97682.22;;;6.75;85.00
81511;BME280;70931;48.796;8.440;2024-03-07T01:32:14;97674.91;;;6.58;85.49
81511;BME280;70931;48.796;8.440;2024-03-07T01:34:39;97669.94;;;6.74;84.88
81511;BME280;70931;48.796;8.440;2024-03-07T01:37:04;97669.09;;;6.73;84.48
81511;BME280;70931;48.796;8.440;2024-03-07T01:39:29;97645.38;;;6.62;84.10
81511;BME280;70931;48.796;8.440;2024-03-07T01:41:55;97678.88;;;6.73;84.26
81511;BME280;70931;48.796;8.440;2024-03-07T01:44:20;97669.41;;;6.80;84.38
81511;BME280;70931;48.796;8.440;2024-03-07T01:46:45;97652.91;;;6.67;84.63
81511;BME280;70931;48.796;8.440;2024-03-07T01:49:11;97662.41;;;6.79;84.41
81511;BME280;70931;48.796;8.440;2024-03-07T01:51:37;97659.75;;;6.79;84.07
81511;BME280;70931;48.796;8.440;2024-03-07T01:54:03;97650.41;;;6.75;84.08
81511;BME280;70931;48.796;8.440;2024-03-07T01:56:29;97654.59;;;6.68;83.96
81511;BME280;70931;48.796;8.440;2024-03-07T01:58:54;97652.63;;;6.70;84.23
81511;BME280;70931;48.796;8.440;2024-03-07T02:01:20;97644.94;;;6.67;84.18
81511;BME280;70931;48.796;8.440;2024-03-07T02:03:45;97644.69;;;6.70;83.83
81511;BME280;70931;48.796;8.440;2024-03-07T02:06:11;97631.25;;;6.52;83.68
81511;BME280;70931;48.796;8.440;2024-03-07T02:08:36;97652.22;;;6.65;83.68
81511;BME280;70931;48.796;8.440;2024-03-07T02:11:01;97654.16;;;6.63;83.77
81511;BME280;70931;48.796;8.440;2024-03-07T02:13:27;97648.13;;;6.61;83.89
81511;BME280;70931;48.796;8.440;2024-03-07T02:15:52;97623.56;;;6.40;84.26
81511;BME280;70931;48.796;8.440;2024-03-07T02:18:19;97650.78;;;6.61;84.09
81511;BME280;70931;48.796;8.440;2024-03-07T02:20:45;97636.84;;;6.59;84.29
81511;BME280;70931;48.796;8.440;2024-03-07T02:23:10;97644.53;;;6.62;83.97
81511;BME280;70931;48.796;8.440;2024-03-07T02:25:35;97647.03;;;6.54;83.89
81511;BME280;70931;48.796;8.440;2024-03-07T02:28:00;97650.38;;;6.56;83.99
81511;BME280;70931;48.796;8.440;2024-03-07T02:30:25;97640.56;;;6.47;84.14
81511;BME280;70931;48.796;8.440;2024-03-07T02:32:51;97637.81;;;6.48;84.00
81511;BME280;70931;48.796;8.440;2024-03-07T02:35:16;97631.66;;;6.48;84.03
81511;BME280;70931;48.796;8.440;2024-03-07T02:37:41;97620.84;;;6.20;84.69
81511;BME280;70931;48.796;8.440;2024-03-07T02:40:07;97634.44;;;6.37;84.39
81511;BME280;70931;48.796;8.440;2024-03-07T02:42:32;97639.72;;;6.37;84.19
81511;BME280;70931;48.796;8.440;2024-03-07T02:44:57;97636.09;;;6.38;84.05
81511;BME280;70931;48.796;8.440;2024-03-07T02:47:23;97621.00;;;6.28;84.23
81511;BME280;70931;48.796;8.440;2024-03-07T02:49:48;97637.72;;;6.29;84.02
81511;BME280;70931;48.796;8.440;2024-03-07T02:52:13;97630.19;;;6.24;83.78
81511;BME280;70931;48.796;8.440;2024-03-07T02:54:38;97626.13;;;6.20;83.71
81511;BME280;70931;48.796;8.440;2024-03-07T02:57:04;97627.13;;;6.19;83.79
81511;BME280;70931;48.796;8.440;2024-03-07T02:59:29;97628.94;;;6.19;83.72
81511;BME280;70931;48.796;8.440;2024-03-07T03:01:54;97617.31;;;6.10;83.81
81511;BME280;70931;48.796;8.440;2024-03-07T03:04:19;97620.66;;;6.12;83.76
81511;BME280;70931;48.796;8.440;2024-03-07T03:06:45;97617.91;;;6.14;83.98
81511;BME280;70931;48.796;8.440;2024-03-07T03:09:10;97618.03;;;6.12;83.59
81511;BME280;70931;48.796;8.440;2024-03-07T03:11:35;97616.91;;;6.05;83.56
81511;BME280;70931;48.796;8.440;2024-03-07T03:14:00;97607.28;;;6.04;83.94
81511;BME280;70931;48.796;8.440;2024-03-07T03:16:25;97610.59;;;5.97;83.15
81511;BME280;70931;48.796;8.440;2024-03-07T03:18:51;97616.16;;;5.94;83.23
81511;BME280;70931;48.796;8.440;2024-03-07T03:21:16;97613.50;;;5.94;83.10
81511;BME280;70931;48.796;8.440;2024-03-07T03:23:41;97612.22;;;5.88;82.88
81511;BME280;70931;48.796;8.440;2024-03-07T03:26:06;97610.78;;;5.84;83.11
81511;BME280;70931;48.796;8.440;2024-03-07T03:28:32;97602.66;;;5.76;83.46
81511;BME280;70931;48.796;8.440;2024-03-07T03:30:57;97607.38;;;5.72;83.32
81511;BME280;70931;48.796;8.440;2024-03-07T03:33:22;97598.66;;;5.61;83.04
81511;BME280;70931;48.796;8.440;2024-03-07T03:35:47;97601.31;;;5.61;83.21
81511;BME280;70931;48.796;8.440;2024-03-07T03:38:13;97598.88;;;5.48;83.05
81511;BME280;70931;48.796;8.440;2024-03-07T03:40:38;97594.38;;;5.39;82.71
81511;BME280;70931;48.796;8.440;2024-03-07T03:43:04;97590.44;;;5.34;82.37
81511;BME280;70931;48.796;8.440;2024-03-07T03:45:29;97583.72;;;5.30;82.53
81511;BME280;70931;48.796;8.440;2024-03-07T03:47:54;97556.00;;;5.03;83.28
81511;BME280;70931;48.796;8.440;2024-03-07T03:50:20;97588.38;;;5.16;83.05
81511;BME280;70931;48.796;8.440;2024-03-07T03:52:45;97584.06;;;5.15;83.32
81511;BME280;70931;48.796;8.440;2024-03-07T03:55:11;97562.00;;;4.85;83.33
81511;BME280;70931;48.796;8.440;2024-03-07T03:57:39;97577.91;;;4.94;83.17
81511;BME280;70931;48.796;8.440;2024-03-07T04:00:06;97591.13;;;4.94;82.87
81511;BME280;70931;48.796;8.440;2024-03-07T04:02:31;97587.44;;;4.86;83.00
81511;BME280;70931;48.796;8.440;2024-03-07T04:04:56;97589.03;;;4.77;83.05
81511;BME280;70931;48.796;8.440;2024-03-07T04:07:21;97584.72;;;4.76;83.13
81511;BME280;70931;48.796;8.440;2024-03-07T04:09:47;97589.53;;;4.71;83.32
81511;BME280;70931;48.796;8.440;2024-03-07T04:12:13;97584.97;;;4.73;83.02
81511;BME280;70931;48.796;8.440;2024-03-07T04:14:42;97589.44;;;4.73;82.85
81511;BME280;70931;48.796;8.440;2024-03-07T04:17:08;97589.06;;;4.66;83.08
81511;BME280;70931;48.796;8.440;2024-03-07T04:19:36;97583.34;;;4.61;82.99
81511;BME280;70931;48.796;8.440;2024-03-07T04:22:02;97582.88;;;4.56;82.40
81511;BME280;70931;48.796;8.440;2024-03-07T04:24:27;97561.53;;;4.48;83.10
81511;BME280;70931;48.796;8.440;2024-03-07T04:26:52;97586.28;;;4.47;82.87
81511;BME280;70931;48.796;8.440;2024-03-07T04:29:17;97582.34;;;4.30;83.49
81511;BME280;70931;48.796;8.440;2024-03-07T04:31:42;97583.25;;;3.86;84.40
81511;BME280;70931;48.796;8.440;2024-03-07T04:34:08;97580.47;;;4.10;83.54
81511;BME280;70931;48.796;8.440;2024-03-07T04:36:33;97580.56;;;4.09;83.65
81511;BME280;70931;48.796;8.440;2024-03-07T04:38:58;97576.72;;;4.24;83.43
81511;BME280;70931;48.796;8.440;2024-03-07T04:41:23;97575.50;;;4.28;83.47
81511;BME280;70931;48.796;8.440;2024-03-07T04:43:49;97576.72;;;4.24;83.67
81511;BME280;70931;48.796;8.440;2024-03-07T04:46:14;97565.94;;;4.16;83.70
81511;BME280;70931;48.796;8.440;2024-03-07T04:48:39;97574.09;;;4.24;84.04
81511;BME280;70931;48.796;8.440;2024-03-07T04:51:04;97572.03;;;4.27;84.31
81511;BME280;70931;48.796;8.440;2024-03-07T04:53:29;97573.59;;;4.30;83.90
81511;BME280;70931;48.796;8.440;2024-03-07T04:55:56;97573.69;;;4.28;84.39
81511;BME280;70931;48.796;8.440;2024-03-07T04:58:21;97563.75;;;4.32;84.07
81511;BME280;70931;48.796;8.440;2024-03-07T05:00:46;97575.50;;;4.39;83.93
81511;BME280;70931;48.796;8.440;2024-03-07T05:03:11;97569.38;;;4.38;83.96
81511;BME280;70931;48.796;8.440;2024-03-07T05:05:37;97575.38;;;4.29;83.39
81511;BME280;70931;48.796;8.440;2024-03-07T05:08:02;97572.13;;;4.37;83.12
81511;BME280;70931;48.796;8.440;2024-03-07T05:10:27;97537.19;;;4.01;82.66
81511;BME280;70931;48.796;8.440;2024-03-07T05:12:52;97565.66;;;4.30;83.38
81511;BME280;70931;48.796;8.440;2024-03-07T05:15:18;97573.38;;;4.22;83.28
81511;BME280;70931;48.796;8.440;2024-03-07T05:17:43;97567.81;;;4.25;83.08
81511;BME280;70931;48.796;8.440;2024-03-07T05:20:09;97578.66;;;4.22;82.59
81511;BME280;70931;48.796;8.440;2024-03-07T05:22:34;97564.13;;;4.16;82.53
81511;BME280;70931;48.796;8.440;2024-03-07T05:24:59;97571.69;;;4.21;82.75
81511;BME280;70931;48.796;8.440;2024-03-07T05:27:24;97577.09;;;4.08;82.51
81511;BME280;70931;48.796;8.440;2024-03-07T05:29:50;97568.22;;;4.09;82.70
81511;BME280;70931;48.796;8.440;2024-03-07T05:32:25;97550.13;;;3.93;82.87
81511;BME280;70931;48.796;8.440;2024-03-07T05:34:50;97574.94;;;4.02;83.17
81511;BME280;70931;48.796;8.440;2024-03-07T05:37:16;97542.97;;;3.84;83.17
81511;BME280;70931;48.796;8.440;2024-03-07T05:39:41;97564.88;;;4.07;82.68
81511;BME280;70931;48.796;8.440;2024-03-07T05:42:06;97564.88;;;4.07;83.00
81511;BME280;70931;48.796;8.440;2024-03-07T05:44:31;97567.13;;;4.12;82.49
81511;BME280;70931;48.796;8.440;2024-03-07T05:46:57;97568.72;;;4.03;82.97
81511;BME280;70931;48.796;8.440;2024-03-07T05:49:22;97565.69;;;4.08;83.38
81511;BME280;70931;48.796;8.440;2024-03-07T05:51:47;97558.16;;;4.03;83.23
81511;BME280;70931;48.796;8.440;2024-03-07T05:54:12;97552.63;;;4.06;83.49
81511;BME280;70931;48.796;8.440;2024-03-07T05:56:38;97561.63;;;4.15;83.37
81511;BME280;70931;48.796;8.440;2024-03-07T05:59:04;97541.47;;;4.02;82.86
81511;BME280;70931;48.796;8.440;2024-03-07T06:01:33;97559.50;;;3.97;83.28
81511;BME280;70931;48.796;8.440;2024-03-07T06:03:59;97565.84;;;3.95;82.63
81511;BME280;70931;48.796;8.440;2024-03-07T06:06:24;97559.97;;;3.91;82.59
81511;BME280;70931;48.796;8.440;2024-03-07T06:08:49;97556.16;;;3.95;83.12
81511;BME280;70931;48.796;8.440;2024-03-07T06:11:14;97567.38;;;4.09;83.38
81511;BME280;70931;48.796;8.440;2024-03-07T06:13:39;97566.91;;;4.15;83.09
81511;BME280;70931;48.796;8.440;2024-03-07T06:16:05;97569.03;;;4.21;82.36
81511;BME280;70931;48.796;8.440;2024-03-07T06:18:30;97560.88;;;4.24;82.36
81511;BME280;70931;48.796;8.440;2024-03-07T06:20:55;97563.75;;;4.32;82.24
81511;BME280;70931;48.796;8.440;2024-03-07T06:23:21;97569.41;;;4.27;82.10
81511;BME280;70931;48.796;8.440;2024-03-07T06:25:46;97566.16;;;4.24;82.35
81511;BME280;70931;48.796;8.440;2024-03-07T06:28:11;97568.66;;;4.25;82.10
81511;BME280;70931;48.796;8.440;2024-03-07T06:30:37;97555.34;;;4.27;82.33
81511;BME280;70931;48.796;8.440;2024-03-07T06:33:03;97559.41;;;4.42;82.39
81511;BME280;70931;48.796;8.440;2024-03-07T06:35:29;97561.31;;;4.40;82.83
81511;BME280;70931;48.796;8.440;2024-03-07T06:37:54;97559.91;;;4.36;82.65
81511;BME280;70931;48.796;8.440;2024-03-07T06:40:19;97556.06;;;4.29;82.89
81511;BME280;70931;48.796;8.440;2024-03-07T06:42:44;97552.44;;;4.41;82.64
81511;BME280;70931;48.796;8.440;2024-03-07T06:45:10;97553.84;;;4.45;82.46
81511;BME280;70931;48.796;8.440;2024-03-07T06:47:35;97529.22;;;4.24;82.70
81511;BME280;70931;48.796;8.440;2024-03-07T06:50:00;97571.88;;;4.40;81.35
81511;BME280;70931;48.796;8.440;2024-03-07T06:52:25;97565.38;;;4.44;81.15
81511;BME280;70931;48.796;8.440;2024-03-07T06:54:51;97522.59;;;4.29;80.70
81511;BME280;70931;48.796;8.440;2024-03-07T06:57:17;97566.31;;;4.54;81.29
81511;BME280;70931;48.796;8.440;2024-03-07T06:59:42;97565.84;;;4.49;79.82
81511;BME280;70931;48.796;8.440;2024-03-07T07:02:07;97564.34;;;4.35;81.77
81511;BME280;70931;48.796;8.440;2024-03-07T07:04:32;97566.00;;;4.36;81.04
81511;BME280;70931;48.796;8.440;2024-03-07T07:06:58;97564.41;;;4.45;80.27
81511;BME280;70931;48.796;8.440;2024-03-07T07:09:23;97561.16;;;4.52;80.72
81511;BME280;70931;48.796;8.440;2024-03-07T07:11:48;97569.94;;;4.53;81.68
81511;BME280;70931;48.796;8.440;2024-03-07T07:14:13;97568.38;;;4.50;81.65
81511;BME280;70931;48.796;8.440;2024-03-07T07:16:38;97567.41;;;4.51;81.66
81511;BME280;70931;48.796;8.440;2024-03-07T07:19:04;97566.31;;;4.54;81.43
81511;BME280;70931;48.796;8.440;2024-03-07T07:21:29;97576.41;;;4.49;81.04
81511;BME280;70931;48.796;8.440;2024-03-07T07:23:54;97575.56;;;4.48;81.08
81511;BME280;70931;48.796;8.440;2024-03-07T07:26:19;97561.75;;;4.56;80.71
81511;BME280;70931;48.796;8.440;2024-03-07T07:28:44;97561.50;;;4.59;80.51
81511;BME280;70931;48.796;8.440;2024-03-07T07:31:10;97564.16;;;4.48;80.25
81511;BME280;70931;48.796;8.440;2024-03-07T07:33:35;97569.16;;;4.62;81.13
81511;BME280;70931;48.796;8.440;2024-03-07T07:36:00;97571.53;;;4.76;81.32
81511;BME280;70931;48.796;8.440;2024-03-07T07:38:25;97574.81;;;4.89;81.36
81511;BME280;70931;48.796;8.440;2024-03-07T07:40:51;97569.84;;;4.75;80.58
81511;BME280;70931;48.796;8.440;2024-03-07T07:43:17;97560.81;;;4.78;79.13
81511;BME280;70931;48.796;8.440;2024-03-07T07:45:42;97560.41;;;4.82;79.94
81511;BME280;70931;48.796;8.440;2024-03-07T07:48:07;97561.78;;;4.97;80.07
81511;BME280;70931;48.796;8.440;2024-03-07T07:50:32;97567.41;;;5.04;79.86
81511;BME280;70931;48.796;8.440;2024-03-07T07:52:58;97548.06;;;5.03;80.86
81511;BME280;70931;48.796;8.440;2024-03-07T07:55:24;97553.09;;;5.06;78.71
81511;BME280;70931;48.796;8.440;2024-03-07T07:57:52;97544.91;;;5.09;79.28
81511;BME280;70931;48.796;8.440;2024-03-07T08:00:18;97549.34;;;5.09;77.90
81511;BME280;70931;48.796;8.440;2024-03-07T08:02:43;97548.09;;;4.72;79.33
81511;BME280;70931;48.796;8.440;2024-03-07T08:05:08;97548.38;;;4.69;79.05
81511;BME280;70931;48.796;8.440;2024-03-07T08:07:34;97542.22;;;4.79;78.74
81511;BME280;70931;48.796;8.440;2024-03-07T08:09:59;97533.50;;;4.88;78.83
81511;BME280;70931;48.796;8.440;2024-03-07T08:12:24;97532.41;;;5.11;77.75
81511;BME280;70931;48.796;8.440;2024-03-07T08:14:49;97528.53;;;5.15;77.70
81511;BME280;70931;48.796;8.440;2024-03-07T08:17:14;97529.50;;;5.14;76.64
81511;BME280;70931;48.796;8.440;2024-03-07T08:19:40;97530.78;;;5.20;78.66
81511;BME280;70931;48.796;8.440;2024-03-07T08:22:05;97532.66;;;5.29;79.15
81511;BME280;70931;48.796;8.440;2024-03-07T08:24:30;97526.22;;;5.22;77.56
81511;BME280;70931;48.796;8.440;2024-03-07T08:26:55;97531.56;;;5.11;75.92
81511;BME280;70931;48.796;8.440;2024-03-07T08:29:21;97522.09;;;5.08;76.57
81511;BME280;70931;48.796;8.440;2024-03-07T08:31:46;97481.44;;;4.79;75.84
81511;BME280;70931;48.796;8.440;2024-03-07T08:34:11;97516.94;;;4.86;76.79
81511;BME280;70931;48.796;8.440;2024-03-07T08:36:36;97514.22;;;4.97;78.98
81511;BME280;70931;48.796;8.440;2024-03-07T08:39:01;97516.28;;;5.14;78.35
81511;BME280;70931;48.796;8.440;2024-03-07T08:41:27;97509.13;;;5.05;78.86
81511;BME280;70931;48.796;8.440;2024-03-07T08:43:52;97504.63;;;4.76;78.05
81511;BME280;70931;48.796;8.440;2024-03-07T08:46:17;97504.66;;;4.96;78.16
81511;BME280;70931;48.796;8.440;2024-03-07T08:48:42;97507.84;;;5.00;78.07
81511;BME280;70931;48.796;8.440;2024-03-07T08:51:07;97503.72;;;4.86;76.16
81511;BME280;70931;48.796;8.440;2024-03-07T08:53:33;97509.84;;;5.07;77.58
81511;BME280;70931;48.796;8.440;2024-03-07T08:55:58;97498.94;;;5.22;78.02
81511;BME280;70931;48.796;8.440;2024-03-07T08:58:23;97504.31;;;5.41;75.81
81511;BME280;70931;48.796;8.440;2024-03-07T09:00:48;97494.59;;;5.41;78.65
81511;BME280;70931;48.796;8.440;2024-03-07T09:03:14;97503.69;;;5.58;76.76
81511;BME280;70931;48.796;8.440;2024-03-07T09:05:39;97494.84;;;5.78;78.16
81511;BME280;70931;48.796;8.440;2024-03-07T09:08:04;97492.44;;;5.96;75.04
81511;BME280;70931;48.796;8.440;2024-03-07T09:10:30;97491.06;;;6.01;74.99
81511;BME280;70931;48.796;8.440;2024-03-07T09:12:55;97490.81;;;6.14;74.24
81511;BME280;70931;48.796;8.440;2024-03-07T09:15:20;97476.59;;;6.05;73.41
81511;BME280;70931;48.796;8.440;2024-03-07T09:17:45;97490.53;;;5.67;72.12
81511;BME280;70931;48.796;8.440;2024-03-07T09:20:11;97477.09;;;5.90;72.27
81511;BME280;70931;48.796;8.440;2024-03-07T09:22:36;97477.84;;;6.20;75.13
81511;BME280;70931;48.796;8.440;2024-03-07T09:25:01;97484.97;;;6.39;74.16
81511;BME280;70931;48.796;8.440;2024-03-07T09:27:27;97478.53;;;6.32;71.74
81511;BME280;70931;48.796;8.440;2024-03-07T09:29:52;97474.38;;;6.39;70.67
81511;BME280;70931;48.796;8.440;2024-03-07T09:32:18;97471.88;;;6.57;67.89
81511;BME280;70931;48.796;8.440;2024-03-07T09:34:43;97474.47;;;6.09;68.89
81511;BME280;70931;48.796;8.440;2024-03-07T09:37:08;97473.81;;;6.26;70.32
81511;BME280;70931;48.796;8.440;2024-03-07T09:39:34;97474.50;;;6.38;68.92
81511;BME280;70931;48.796;8.440;2024-03-07T09:41:59;97472.13;;;6.82;67.80
81511;BME280;70931;48.796;8.440;2024-03-07T09:44:25;97467.94;;;6.89;67.75
81511;BME280;70931;48.796;8.440;2024-03-07T09:46:55;97470.13;;;7.13;68.03
81511;BME280;70931;48.796;8.440;2024-03-07T09:49:21;97464.72;;;6.86;66.33
81511;BME280;70931;48.796;8.440;2024-03-07T09:51:47;97470.97;;;7.04;68.01
81511;BME280;70931;48.796;8.440;2024-03-07T09:54:12;97468.44;;;7.12;67.54
81511;BME280;70931;48.796;8.440;2024-03-07T09:56:38;97465.28;;;7.36;64.81
81511;BME280;70931;48.796;8.440;2024-03-07T09:59:04;97469.25;;;7.86;68.08
81511;BME280;70931;48.796;8.440;2024-03-07T10:01:33;97466.84;;;8.55;66.03
81511;BME280;70931;48.796;8.440;2024-03-07T10:04:00;97464.97;;;8.48;62.76
81511;BME280;70931;48.796;8.440;2024-03-07T10:06:25;97445.50;;;8.65;61.28
81511;BME280;70931;48.796;8.440;2024-03-07T10:08:50;97463.81;;;8.86;61.01
81511;BME280;70931;48.796;8.440;2024-03-07T10:11:16;97457.53;;;8.51;61.42
81511;BME280;70931;48.796;8.440;2024-03-07T10:13:41;97456.94;;;9.01;62.15
81511;BME280;70931;48.796;8.440;2024-03-07T10:16:07;97461.84;;;8.52;62.77
81511;BME280;70931;48.796;8.440;2024-03-07T10:18:32;97458.91;;;8.99;63.44
81511;BME280;70931;48.796;8.440;2024-03-07T10:20:58;97451.38;;;9.12;62.26
81511;BME280;70931;48.796;8.440;2024-03-07T10:23:23;97435.91;;;8.90;61.40
81511;BME280;70931;48.796;8.440;2024-03-07T10:25:50;97450.31;;;9.05;63.32
81511;BME280;70931;48.796;8.440;2024-03-07T10:28:16;97427.47;;;9.20;60.59
81511;BME280;70931;48.796;8.440;2024-03-07T10:30:42;97448.03;;;9.69;58.30
81511;BME280;70931;48.796;8.440;2024-03-07T10:33:07;97442.63;;;10.61;56.81
81511;BME280;70931;48.796;8.440;2024-03-07T10:35:33;97426.91;;;11.15;54.68
81511;BME280;70931;48.796;8.440;2024-03-07T10:37:58;97412.25;;;11.19;53.03
81511;BME280;70931;48.796;8.440;2024-03-07T10:40:24;97441.28;;;10.98;53.32
81511;BME280;70931;48.796;8.440;2024-03-07T10:42:49;97438.91;;;11.35;52.15
81511;BME280;70931;48.796;8.440;2024-03-07T10:45:16;97444.19;;;11.51;52.18
81511;BME280;70931;48.796;8.440;2024-03-07T10:47:42;97438.91;;;11.35;51.36
81511;BME280;70931;48.796;8.440;2024-03-07T10:50:20;97447.91;;;10.37;53.86
81511;BME280;70931;48.796;8.440;2024-03-07T10:52:54;97433.78;;;10.61;52.92
81511;BME280;70931;48.796;8.440;2024-03-07T10:58:37;97434.56;;;11.42;52.39
81511;BME280;70931;48.796;8.440;2024-03-07T11:01:06;97434.63;;;10.61;51.40
81511;BME280;70931;48.796;8.440;2024-03-07T11:03:33;97440.28;;;10.66;52.12
81511;BME280;70931;48.796;8.440;2024-03-07T11:06:01;97433.63;;;10.86;51.90
81511;BME280;70931;48.796;8.440;2024-03-07T11:08:26;97415.78;;;10.95;52.93
81511;BME280;70931;48.796;8.440;2024-03-07T11:10:52;97429.91;;;11.20;49.75
81511;BME280;70931;48.796;8.440;2024-03-07T11:13:17;97431.13;;;9.95;54.27
81511;BME280;70931;48.796;8.440;2024-03-07T11:15:45;97428.22;;;10.22;53.03
81511;BME280;70931;48.796;8.440;2024-03-07T11:18:11;97434.28;;;10.88;52.01
81511;BME280;70931;48.796;8.440;2024-03-07T11:20:39;97432.13;;;10.92;50.64
81511;BME280;70931;48.796;8.440;2024-03-07T11:23:30;97425.59;;;10.62;52.17
81511;BME280;70931;48.796;8.440;2024-03-07T11:26:02;97428.44;;;10.77;52.07
81511;BME280;70931;48.796;8.440;2024-03-07T11:28:28;97427.44;;;11.10;50.16
81511;BME280;70931;48.796;8.440;2024-03-07T11:30:54;97423.13;;;10.61;53.31
81511;BME280;70931;48.796;8.440;2024-03-07T11:33:19;97418.34;;;9.98;53.79
81511;BME280;70931;48.796;8.440;2024-03-07T11:35:48;97412.38;;;11.25;52.38
81511;BME280;70931;48.796;8.440;2024-03-07T11:38:13;97416.16;;;10.02;52.55
81511;BME280;70931;48.796;8.440;2024-03-07T11:43:04;97429.69;;;9.58;53.60
81511;BME280;70931;48.796;8.440;2024-03-07T11:45:29;97405.25;;;9.79;53.81
81511;BME280;70931;48.796;8.440;2024-03-07T11:47:56;97404.16;;;9.98;51.31
81511;BME280;70931;48.796;8.440;2024-03-07T11:50:21;97413.72;;;9.33;53.76
81511;BME280;70931;48.796;8.440;2024-03-07T11:52:47;97421.91;;;10.15;52.48
81511;BME280;70931;48.796;8.440;2024-03-07T11:55:12;97410.53;;;9.21;53.88
81511;BME280;70931;48.796;8.440;2024-03-07T11:57:38;97410.16;;;10.00;53.82
81511;BME280;70931;48.796;8.440;2024-03-07T12:00:04;97386.59;;;10.13;51.96
81511;BME280;70931;48.796;8.440;2024-03-07T12:02:29;97398.19;;;9.96;51.50
81511;BME280;70931;48.796;8.440;2024-03-07T12:04:54;97404.94;;;10.56;51.16
81511;BME280;70931;48.796;8.440;2024-03-07T12:07:20;97403.69;;;10.10;51.11
81511;BME280;70931;48.796;8.440;2024-03-07T12:09:45;97411.75;;;9.77;52.72
81511;BME280;70931;48.796;8.440;2024-03-07T12:12:11;97404.78;;;10.42;51.22
81511;BME280;70931;48.796;8.440;2024-03-07T12:14:36;97411.94;;;10.41;51.61
81511;BME280;70931;48.796;8.440;2024-03-07T12:17:01;97415.28;;;10.75;51.11
81511;BME280;70931;48.796;8.440;2024-03-07T12:19:27;97405.19;;;11.42;48.76
81511;BME280;70931;48.796;8.440;2024-03-07T12:21:56;97375.00;;;9.96;51.32
81511;BME280;70931;48.796;8.440;2024-03-07T12:24:22;97403.69;;;9.52;51.54
81511;BME280;70931;48.796;8.440;2024-03-07T12:26:47;97405.47;;;9.86;52.68
81511;BME280;70931;48.796;8.440;2024-03-07T12:29:13;97411.22;;;9.31;53.51
81511;BME280;70931;48.796;8.440;2024-03-07T12:31:41;97394.06;;;9.59;54.25
81511;BME280;70931;48.796;8.440;2024-03-07T12:34:08;97372.03;;;10.07;52.74
81511;BME280;70931;48.796;8.440;2024-03-07T12:36:33;97389.44;;;10.44;51.77
81511;BME280;70931;48.796;8.440;2024-03-07T12:38:58;97394.28;;;10.40;52.38
81511;BME280;70931;48.796;8.440;2024-03-07T12:41:23;97395.59;;;10.76;52.04
81511;BME280;70931;48.796;8.440;2024-03-07T12:43:49;97397.38;;;9.61;53.97
81511;BME280;70931;48.796;8.440;2024-03-07T12:46:14;97392.91;;;9.70;53.39
81511;BME280;70931;48.796;8.440;2024-03-07T12:48:39;97396.25;;;9.30;54.77
81511;BME280;70931;48.796;8.440;2024-03-07T12:51:05;97389.28;;;9.29;54.04
81511;BME280;70931;48.796;8.440;2024-03-07T12:53:30;97380.16;;;8.54;56.46
81511;BME280;70931;48.796;8.440;2024-03-07T12:55:55;97383.72;;;9.56;54.97
81511;BME280;70931;48.796;8.440;2024-03-07T12:58:21;97381.31;;;9.87;54.30
81511;BME280;70931;48.796;8.440;2024-03-07T13:00:46;97380.97;;;10.64;51.66
81511;BME280;70931;48.796;8.440;2024-03-07T13:03:11;97382.94;;;10.62;50.98
81511;BME280;70931;48.796;8.440;2024-03-07T13:05:37;97381.28;;;10.29;51.29